Time;durP1;ratioP1;P1;durP2;ratioP2;P2;SDS_P1;SDS_P2;PMS_P1;PMS_P2;Temp;Humidity;BMP_temperature;BMP_pressure;BME280_temperature;BME280_humidity;BME280_pressure;Samples;Min_cycle;Max_cycle;Signal;HPM_P1;HPM_P2
2021/08/25 00:02:14;;;;;;;9.48;6.25;;;14.10;70.60;;;;;;5008583;28;20022;-82
2021/08/25 00:04:41;;;;;;;12.90;6.65;;;14.00;70.40;;;;;;5011205;28;20041;-82
2021/08/25 00:07:08;;;;;;;14.53;7.70;;;14.00;70.60;;;;;;5011599;28;20061;-82
2021/08/25 00:09:35;;;;;;;13.48;8.18;;;14.00;70.80;;;;;;5012618;28;20053;-82
2021/08/25 00:12:01;;;;;;;10.27;7.35;;;13.90;71.00;;;;;;5012660;28;20387;-83
2021/08/25 00:14:28;;;;;;;12.75;6.45;;;13.90;70.20;;;;;;5011038;28;20030;-83
2021/08/25 00:16:54;;;;;;;10.98;7.93;;;13.90;69.40;;;;;;5011269;28;20026;-82
2021/08/25 00:19:20;;;;;;;10.10;6.45;;;13.90;69.30;;;;;;5010979;28;20569;-83
2021/08/25 00:21:46;;;;;;;10.10;6.28;;;13.90;68.80;;;;;;5012864;28;20026;-81
2021/08/25 00:24:11;;;;;;;12.38;6.65;;;13.90;68.80;;;;;;5012383;28;20022;-81
2021/08/25 00:26:37;;;;;;;8.38;6.13;;;13.90;69.00;;;;;;5012761;28;20026;-82
2021/08/25 00:29:03;;;;;;;11.15;6.72;;;13.90;69.30;;;;;;5013303;28;20026;-82
2021/08/25 00:31:29;;;;;;;9.43;6.90;;;14.00;69.10;;;;;;5013778;28;20478;-81
2021/08/25 00:33:55;;;;;;;8.60;6.07;;;14.00;68.80;;;;;;5012687;28;20071;-81
2021/08/25 00:36:21;;;;;;;9.38;5.53;;;13.90;68.30;;;;;;5004635;28;20014;-81
2021/08/25 00:38:46;;;;;;;10.13;6.43;;;13.90;68.00;;;;;;5012625;28;20037;-80
2021/08/25 00:41:12;;;;;;;11.48;6.53;;;13.90;68.00;;;;;;5012254;28;20042;-81
2021/08/25 00:43:38;;;;;;;8.73;6.18;;;13.90;68.00;;;;;;5012486;28;20060;-82
2021/08/25 00:46:05;;;;;;;8.27;5.60;;;13.90;68.10;;;;;;5012343;28;20026;-82
2021/08/25 00:48:31;;;;;;;9.43;5.32;;;13.90;67.90;;;;;;5012610;28;20022;-83
2021/08/25 00:50:57;;;;;;;10.27;6.32;;;13.90;67.90;;;;;;5012588;28;20030;-82
2021/08/25 00:53:23;;;;;;;9.93;5.97;;;13.80;67.40;;;;;;5012522;28;20030;-82
2021/08/25 00:55:49;;;;;;;9.45;6.20;;;13.80;67.60;;;;;;5012627;28;20128;-82
2021/08/25 00:58:16;;;;;;;11.73;5.97;;;13.80;67.50;;;;;;5013552;28;20030;-82
2021/08/25 01:00:51;;;;;;;12.20;6.03;;;13.80;67.40;;;;;;5015962;28;20018;-83
2021/08/25 01:03:45;;;;;;;11.55;5.88;;;13.80;67.20;;;;;;5015981;28;20022;-81
2021/08/25 01:06:14;;;;;;;13.43;6.65;;;13.80;67.40;;;;;;5014255;28;20033;-81
2021/08/25 01:08:41;;;;;;;11.13;6.55;;;13.80;67.90;;;;;;5015824;28;20430;-81
2021/08/25 01:11:08;;;;;;;7.45;5.35;;;13.80;67.70;;;;;;5016053;28;20022;-81
2021/08/25 01:13:35;;;;;;;;;;;13.80;67.50;;;;;;5017108;28;20018;-82
2021/08/25 01:16:01;;;;;;;7.80;4.88;;;13.80;67.50;;;;;;5015890;28;19960;-82
2021/08/25 01:18:30;;;;;;;9.93;7.03;;;13.70;67.50;;;;;;5015534;28;20117;-83
2021/08/25 01:20:59;;;;;;;10.02;6.03;;;13.80;67.60;;;;;;5013192;28;20022;-82
2021/08/25 01:23:26;;;;;;;10.02;5.57;;;13.80;67.50;;;;;;5010504;28;20088;-80
2021/08/25 01:25:57;;;;;;;7.57;5.47;;;13.70;66.80;;;;;;5015433;28;20475;-82
2021/08/25 01:28:26;;;;;;;11.43;6.20;;;13.80;66.60;;;;;;5015570;28;20076;-82
2021/08/25 01:30:53;;;;;;;11.07;6.13;;;13.70;66.80;;;;;;5014121;28;20022;-81
2021/08/25 01:33:28;;;;;;;11.67;5.70;;;13.80;67.20;;;;;;5012707;28;20068;-82
2021/08/25 01:35:54;;;;;;;7.25;5.07;;;13.80;67.20;;;;;;5013809;28;20017;-81
2021/08/25 01:38:34;;;;;;;10.05;6.30;;;13.70;66.80;;;;;;5015539;28;20030;-82
2021/08/25 01:41:01;;;;;;;7.28;5.47;;;13.70;67.10;;;;;;5016407;28;20061;-82
2021/08/25 01:43:27;;;;;;;9.82;5.95;;;13.70;67.00;;;;;;5015516;28;20033;-81
2021/08/25 01:45:53;;;;;;;7.70;5.40;;;13.70;67.50;;;;;;5015178;28;20022;-82
2021/08/25 01:48:19;;;;;;;9.13;5.93;;;13.60;67.30;;;;;;5015679;28;20026;-81
2021/08/25 01:50:45;;;;;;;9.93;6.22;;;13.60;67.50;;;;;;5015806;28;20514;-81
2021/08/25 01:53:13;;;;;;;7.93;5.70;;;13.60;67.50;;;;;;5019401;28;20048;-83
2021/08/25 01:55:39;;;;;;;9.25;6.40;;;13.60;67.40;;;;;;5018534;28;20442;-80
2021/08/25 01:58:05;;;;;;;12.00;6.10;;;13.60;67.30;;;;;;5015871;28;20084;-81
2021/08/25 02:00:31;;;;;;;10.57;6.65;;;13.60;67.00;;;;;;5015214;28;20022;-81
2021/08/25 02:02:57;;;;;;;13.23;5.68;;;13.60;67.30;;;;;;5014812;28;20487;-82
2021/08/25 02:05:22;;;;;;;12.77;6.78;;;13.60;67.50;;;;;;5014878;28;20029;-82
2021/08/25 02:07:48;;;;;;;12.93;5.78;;;13.50;67.90;;;;;;5014502;28;20026;-82
2021/08/25 02:10:14;;;;;;;8.55;6.10;;;13.50;67.70;;;;;;5013305;28;20029;-81
2021/08/25 02:12:40;;;;;;;13.30;6.43;;;13.50;68.00;;;;;;5014784;28;20029;-81
2021/08/25 02:15:06;;;;;;;9.90;6.25;;;13.50;68.10;;;;;;5014713;28;20534;-82
2021/08/25 02:17:32;;;;;;;11.73;6.15;;;13.50;68.30;;;;;;5013068;28;20037;-82
2021/08/25 02:19:58;;;;;;;11.18;6.38;;;13.50;68.60;;;;;;5014520;28;20033;-82
2021/08/25 02:22:24;;;;;;;11.93;6.10;;;13.50;68.70;;;;;;5014117;28;20472;-83
2021/08/25 02:24:50;;;;;;;9.55;6.57;;;13.50;68.70;;;;;;5014478;28;20491;-83
2021/08/25 02:27:16;;;;;;;9.93;6.15;;;13.50;68.80;;;;;;5013984;28;20108;-82
2021/08/25 02:29:41;;;;;;;10.65;5.47;;;13.50;68.60;;;;;;5014353;28;20085;-81
2021/08/25 02:32:07;;;;;;;9.30;6.53;;;13.50;68.30;;;;;;5011108;28;20027;-82
2021/08/25 02:34:33;;;;;;;9.63;5.95;;;13.50;68.70;;;;;;5014298;28;20018;-83
2021/08/25 02:36:59;;;;;;;10.52;6.65;;;13.40;69.00;;;;;;5014597;28;20453;-83
2021/08/25 02:39:28;;;;;;;10.00;5.78;;;;;;;;;;5014001;28;20317;-82
2021/08/25 02:41:54;;;;;;;9.13;6.82;;;13.30;69.30;;;;;;5014018;28;20046;-81
2021/08/25 02:44:20;;;;;;;10.68;6.38;;;13.20;70.30;;;;;;5014060;28;20018;-81
2021/08/25 02:46:46;;;;;;;10.13;6.38;;;13.10;70.90;;;;;;5014311;28;20022;-82
2021/08/25 02:49:11;;;;;;;11.07;5.97;;;13.10;71.30;;;;;;5014121;28;20022;-82
2021/08/25 02:51:37;;;;;;;10.43;6.47;;;13.00;71.80;;;;;;5012859;28;20109;-82
2021/08/25 02:54:03;;;;;;;9.45;5.78;;;13.00;72.10;;;;;;5014157;28;20022;-80
2021/08/25 02:56:29;;;;;;;10.38;6.65;;;13.00;71.90;;;;;;5014285;28;20025;-82
2021/08/25 02:58:55;;;;;;;11.45;6.30;;;13.00;72.20;;;;;;5014222;28;20066;-82
2021/08/25 03:01:20;;;;;;;13.38;6.38;;;13.00;72.20;;;;;;5013622;28;20046;-81
2021/08/25 03:03:47;;;;;;;9.80;6.40;;;12.90;72.30;;;;;;5013770;28;20029;-82
2021/08/25 03:06:13;;;;;;;10.38;6.80;;;13.00;72.40;;;;;;5012075;28;20077;-84
2021/08/25 03:08:39;;;;;;;10.85;6.15;;;12.90;72.30;;;;;;5013582;28;20033;-83
2021/08/25 03:11:04;;;;;;;14.70;5.95;;;13.00;72.40;;;;;;5013812;28;20022;-81
2021/08/25 03:13:30;;;;;;;13.48;6.45;;;13.00;72.60;;;;;;5014248;28;20034;-81
2021/08/25 03:15:56;;;;;;;10.18;6.47;;;13.00;72.20;;;;;;5013783;28;20018;-82
2021/08/25 03:18:22;;;;;;;11.68;6.60;;;13.10;71.80;;;;;;5013400;28;20491;-83
2021/08/25 03:20:48;;;;;;;9.70;5.95;;;13.10;71.30;;;;;;4999268;28;20025;-83
2021/08/25 03:23:14;;;;;;;11.80;6.57;;;13.20;71.20;;;;;;5013062;28;20022;-82
2021/08/25 03:25:40;;;;;;;9.40;6.32;;;13.30;70.70;;;;;;5013015;28;20386;-82
2021/08/25 03:28:05;;;;;;;13.88;6.78;;;13.40;70.40;;;;;;5013108;28;20022;-83
2021/08/25 03:30:31;;;;;;;9.82;7.00;;;13.40;69.80;;;;;;5011081;28;20033;-83
2021/08/25 03:32:57;;;;;;;9.82;6.38;;;13.50;69.70;;;;;;5013205;28;20105;-81
2021/08/25 03:35:23;;;;;;;11.23;6.18;;;13.60;68.90;;;;;;5012952;28;20026;-83
2021/08/25 03:37:49;;;;;;;13.50;6.90;;;13.60;68.50;;;;;;5013028;28;20029;-83
2021/08/25 03:40:15;;;;;;;12.10;6.43;;;13.70;68.10;;;;;;5013029;28;20099;-83
2021/08/25 03:42:40;;;;;;;13.35;6.85;;;13.70;67.90;;;;;;5012546;28;20406;-81
2021/08/25 03:45:10;;;;;;;9.30;6.20;;;13.80;67.70;;;;;;5010750;28;20049;-84
2021/08/25 03:47:36;;;;;;;12.77;6.60;;;13.80;67.60;;;;;;5012518;28;20014;-81
2021/08/25 03:50:02;;;;;;;10.35;6.80;;;13.90;67.60;;;;;;5011201;28;20033;-80
2021/08/25 03:52:28;;;;;;;12.45;7.57;;;13.90;67.20;;;;;;5012468;28;20073;-81
2021/08/25 03:54:54;;;;;;;10.73;7.03;;;14.00;67.10;;;;;;5012457;28;20057;-80
2021/08/25 03:57:19;;;;;;;10.40;6.72;;;14.00;66.90;;;;;;5012443;28;20054;-81
2021/08/25 03:59:45;;;;;;;12.27;6.75;;;14.10;66.90;;;;;;5012214;28;20022;-81
2021/08/25 04:02:11;;;;;;;15.85;7.40;;;14.20;67.30;;;;;;5012350;28;20029;-81
2021/08/25 04:04:37;;;;;;;14.60;7.20;;;14.30;66.90;;;;;;5012376;28;20112;-79
2021/08/25 04:07:03;;;;;;;12.13;7.15;;;14.30;66.30;;;;;;5012518;28;20033;-80
2021/08/25 04:09:29;;;;;;;14.30;7.40;;;14.40;66.20;;;;;;5012193;28;20026;-81
2021/08/25 04:11:55;;;;;;;15.65;6.82;;;14.40;66.00;;;;;;5011340;28;20056;-81
2021/08/25 04:14:20;;;;;;;10.82;6.65;;;14.50;65.40;;;;;;5012338;28;20487;-81
2021/08/25 04:16:46;;;;;;;7.78;5.75;;;14.50;65.00;;;;;;5010818;28;20022;-82
2021/08/25 04:19:12;;;;;;;11.02;6.93;;;14.50;64.40;;;;;;5012070;28;20041;-82
2021/08/25 04:21:38;;;;;;;11.27;6.22;;;14.60;64.70;;;;;;5012465;28;20125;-82
2021/08/25 04:24:04;;;;;;;13.45;7.78;;;14.60;64.20;;;;;;5014355;28;20076;-83
2021/08/25 04:26:30;;;;;;;11.88;6.82;;;14.60;64.00;;;;;;5013433;28;20109;-85
2021/08/25 04:28:56;;;;;;;11.50;6.60;;;14.60;63.80;;;;;;5011157;28;20049;-83
2021/08/25 04:31:22;;;;;;;10.68;7.05;;;14.70;63.50;;;;;;5001844;28;20018;-84
2021/08/25 04:33:48;;;;;;;11.45;7.43;;;14.80;63.40;;;;;;5015065;28;20387;-83
2021/08/25 04:36:13;;;;;;;13.55;7.65;;;15.00;62.90;;;;;;5016745;28;20098;-84
2021/08/25 04:38:39;;;;;;;13.65;7.93;;;15.30;62.50;;;;;;5016031;28;20034;-82
2021/08/25 04:41:06;;;;;;;10.32;7.00;;;15.80;62.00;;;;;;5015977;28;20042;-82
2021/08/25 04:43:32;;;;;;;15.07;8.40;;;16.40;60.50;;;;;;5018656;28;20379;-81
2021/08/25 04:45:58;;;;;;;13.77;7.50;;;17.00;58.40;;;;;;5018254;28;20033;-82
2021/08/25 04:48:23;;;;;;;10.48;6.78;;;17.40;57.40;;;;;;5021448;28;20050;-82
2021/08/25 04:50:49;;;;;;;12.27;8.60;;;17.90;55.70;;;;;;5018212;28;20495;-84
2021/08/25 04:53:16;;;;;;;14.00;7.85;;;18.40;54.60;;;;;;5016037;28;20041;-83
2021/08/25 04:55:42;;;;;;;13.75;7.78;;;18.50;53.30;;;;;;5015775;28;20018;-84
2021/08/25 04:58:08;;;;;;;14.63;9.30;;;18.90;52.40;;;;;;5017945;28;20038;-84
2021/08/25 05:00:34;;;;;;;13.88;6.97;;;19.20;50.80;;;;;;5015267;28;20060;-83
2021/08/25 05:03:00;;;;;;;15.55;7.72;;;19.60;50.70;;;;;;5016660;28;20026;-84
2021/08/25 05:05:26;;;;;;;13.02;7.75;;;20.20;50.80;;;;;;5015692;28;20030;-84
2021/08/25 05:07:52;;;;;;;12.85;7.00;;;20.90;48.80;;;;;;5015557;28;20467;-83
2021/08/25 05:10:18;;;;;;;13.60;8.13;;;21.50;47.30;;;;;;5015687;28;20098;-85
2021/08/25 05:12:44;;;;;;;10.05;7.63;;;22.00;46.10;;;;;;5015862;28;20076;-84
2021/08/25 05:15:11;;;;;;;11.23;7.10;;;22.20;45.10;;;;;;5015158;28;20046;-84
2021/08/25 05:17:37;;;;;;;11.98;7.20;;;22.70;45.30;;;;;;5015818;28;20018;-82
2021/08/25 05:20:05;;;;;;;11.95;6.72;;;23.30;43.20;;;;;;5015803;28;20045;-85
2021/08/25 05:22:31;;;;;;;10.75;6.75;;;23.40;41.50;;;;;;5014615;28;20530;-85
2021/08/25 05:24:57;;;;;;;12.63;8.07;;;23.20;41.50;;;;;;5016330;28;20081;-84
2021/08/25 05:27:23;;;;;;;10.93;6.70;;;23.00;41.60;;;;;;5017927;28;20021;-83
2021/08/25 05:29:49;;;;;;;12.98;6.90;;;23.20;41.50;;;;;;5008786;28;20029;-83
2021/08/25 05:32:15;;;;;;;9.77;6.72;;;23.40;41.30;;;;;;5017394;28;20029;-84
2021/08/25 05:34:41;;;;;;;11.45;7.60;;;24.00;40.00;;;;;;5020134;28;20025;-84
2021/08/25 05:37:07;;;;;;;11.45;7.95;;;24.60;40.50;;;;;;5013742;28;20523;-85
2021/08/25 05:39:32;;;;;;;8.65;6.90;;;24.80;38.60;;;;;;5015184;28;20463;-85
2021/08/25 05:41:58;;;;;;;16.17;7.60;;;25.00;38.70;;;;;;5014946;28;20057;-85
2021/08/25 05:44:24;;;;;;;8.88;6.38;;;25.80;38.40;;;;;;5013581;28;20033;-84
2021/08/25 05:46:52;;;;;;;10.40;6.35;;;25.80;36.50;;;;;;5015182;28;20109;-84
2021/08/25 05:49:18;;;;;;;11.77;6.50;;;25.60;37.30;;;;;;5014756;28;20022;-85
2021/08/25 05:51:44;;;;;;;14.95;8.57;;;26.80;36.70;;;;;;5014361;28;20048;-85
2021/08/25 05:54:13;;;;;;;10.00;6.78;;;28.00;35.50;;;;;;5016964;28;20058;-85
2021/08/25 05:56:39;;;;;;;10.32;7.38;;;28.50;33.80;;;;;;5015767;28;20025;-83
2021/08/25 05:59:05;;;;;;;10.55;6.00;;;28.50;33.80;;;;;;5017333;28;20061;-85
2021/08/25 06:01:31;;;;;;;13.57;6.70;;;28.90;32.70;;;;;;5014042;28;20132;-83
2021/08/25 06:03:57;;;;;;;12.05;7.65;;;29.10;32.20;;;;;;5015074;28;20494;-85
2021/08/25 06:06:34;;;;;;;11.57;7.10;;;28.50;32.70;;;;;;5014171;28;20026;-83
2021/08/25 06:09:04;;;;;;;12.60;7.75;;;28.80;33.10;;;;;;5014380;28;20097;-84
2021/08/25 06:11:30;;;;;;;12.88;6.57;;;28.80;32.90;;;;;;5014229;28;20013;-84
2021/08/25 06:13:56;;;;;;;16.67;10.32;;;29.60;32.50;;;;;;5013336;28;20057;-83
2021/08/25 06:16:22;;;;;;;11.88;8.43;;;30.00;32.70;;;;;;5014276;28;20030;-85
2021/08/25 06:18:48;;;;;;;13.63;7.70;;;30.30;32.00;;;;;;5014205;28;20053;-87
2021/08/25 06:21:15;;;;;;;15.20;8.10;;;30.70;31.40;;;;;;5014833;28;20084;-85
2021/08/25 06:23:42;;;;;;;15.10;7.60;;;31.20;30.80;;;;;;5014959;28;20096;-87
2021/08/25 06:26:08;;;;;;;14.50;7.95;;;30.60;30.80;;;;;;5013252;28;20076;-85
2021/08/25 06:28:34;;;;;;;16.92;8.02;;;30.70;30.70;;;;;;5009337;28;20038;-83
2021/08/25 06:31:00;;;;;;;10.75;6.82;;;31.40;30.40;;;;;;5014071;28;20021;-84
2021/08/25 06:33:25;;;;;;;11.70;7.10;;;32.20;29.80;;;;;;5008614;28;20129;-84
2021/08/25 06:35:52;;;;;;;13.50;7.00;;;;;;;;;;5013616;28;20071;-84
2021/08/25 06:38:17;;;;;;;9.90;6.85;;;32.90;28.70;;;;;;5014454;28;20037;-84
2021/08/25 06:40:43;;;;;;;14.83;6.77;;;32.50;28.90;;;;;;5013668;28;20476;-84
2021/08/25 06:43:12;;;;;;;14.67;7.70;;;32.80;29.20;;;;;;5014221;28;20022;-83
2021/08/25 06:45:38;;;;;;;9.73;7.25;;;33.60;28.50;;;;;;5018726;28;20026;-84
2021/08/25 06:48:13;;;;;;;15.73;12.17;;;33.90;28.00;;;;;;5013698;28;20029;-84
2021/08/25 06:50:41;;;;;;;14.88;8.35;;;33.10;28.20;;;;;;5014521;28;20037;-85
2021/08/25 06:53:07;;;;;;;13.55;7.10;;;31.60;29.00;;;;;;5001542;28;20022;-86
2021/08/25 06:55:36;;;;;;;13.20;8.33;;;31.90;28.90;;;;;;5013080;28;20109;-83
2021/08/25 06:58:02;;;;;;;17.20;7.80;;;32.30;28.70;;;;;;5013451;28;20072;-84
2021/08/25 07:00:27;;;;;;;13.20;7.97;;;31.50;28.80;;;;;;5013560;28;20413;-84
2021/08/25 07:02:53;;;;;;;11.80;8.02;;;31.00;28.90;;;;;;5013765;28;20076;-85
2021/08/25 07:05:19;;;;;;;14.90;7.90;;;30.40;29.40;;;;;;5013599;28;20084;-85
2021/08/25 07:07:47;;;;;;;11.23;7.97;;;30.10;29.80;;;;;;5013650;28;20029;-85
2021/08/25 07:10:13;;;;;;;14.32;7.78;;;30.90;29.50;;;;;;5013468;28;20022;-85
2021/08/25 07:12:39;;;;;;;18.23;9.53;;;31.40;29.40;;;;;;5013422;28;20499;-85
2021/08/25 07:15:06;;;;;;;13.68;8.55;;;31.30;29.00;;;;;;5013299;28;20585;-86
2021/08/25 07:17:31;;;;;;;;;;;31.60;29.40;;;;;;5013658;28;20033;-84
2021/08/25 07:19:57;;;;;;;14.63;7.67;;;32.30;29.90;;;;;;5012072;28;20010;-84
2021/08/25 07:22:23;;;;;;;11.67;7.60;;;33.10;28.30;;;;;;5013605;28;20014;-85
2021/08/25 07:24:49;;;;;;;10.50;7.23;;;33.70;28.10;;;;;;5013011;28;20018;-86
2021/08/25 07:27:15;;;;;;;12.20;5.50;;;34.00;27.70;;;;;;5013287;28;20106;-84
2021/08/25 07:29:41;;;;;;;10.13;5.83;;;33.20;27.50;;;;;;5012584;28;20021;-85
2021/08/25 07:32:07;;;;;;;11.63;6.87;;;33.10;27.80;;;;;;5014554;28;20036;-85
2021/08/25 07:34:33;;;;;;;10.88;6.63;;;33.20;27.70;;;;;;5014257;28;20053;-84
2021/08/25 07:37:00;;;;;;;13.47;5.93;;;33.10;27.90;;;;;;5019221;28;20048;-85
2021/08/25 07:39:27;;;;;;;12.75;6.82;;;32.80;27.70;;;;;;5017148;28;20204;-85
2021/08/25 07:41:53;;;;;;;9.20;6.47;;;32.30;27.90;;;;;;5012857;28;20122;-85
2021/08/25 07:44:20;;;;;;;12.90;6.87;;;31.90;28.30;;;;;;5013148;28;20081;-85
2021/08/25 07:46:46;;;;;;;10.43;6.30;;;31.70;28.60;;;;;;5012797;28;20466;-85
2021/08/25 07:49:13;;;;;;;8.43;5.60;;;32.40;28.40;;;;;;5012761;28;20494;-84
2021/08/25 07:51:39;;;;;;;12.50;8.25;;;33.20;27.80;;;;;;5012682;28;20084;-87
2021/08/25 07:54:06;;;;;;;12.47;7.30;;;33.20;27.30;;;;;;5012683;28;20060;-84
2021/08/25 07:56:31;;;;;;;11.02;7.00;;;33.00;27.60;;;;;;5013701;28;20029;-86
2021/08/25 07:58:57;;;;;;;14.17;7.33;;;33.40;27.60;;;;;;5013759;28;20038;-87
2021/08/25 08:01:24;;;;;;;9.95;7.50;;;34.10;27.20;;;;;;5013013;28;20022;-86
2021/08/25 08:03:49;;;;;;;14.85;6.63;;;35.20;26.90;;;;;;5013243;28;20372;-84
2021/08/25 08:06:21;;;;;;;12.47;6.43;;;36.00;26.50;;;;;;5012441;28;20028;-85
2021/08/25 08:08:48;;;;;;;7.80;6.75;;;36.50;26.30;;;;;;5012344;28;20346;-83
2021/08/25 08:11:14;;;;;;;11.70;6.72;;;36.30;25.90;;;;;;5012732;28;20040;-87
2021/08/25 08:13:40;;;;;;;8.95;6.35;;;35.00;26.30;;;;;;5012532;28;20040;-85
2021/08/25 08:16:06;;;;;;;10.40;7.10;;;35.20;26.80;;;;;;5011727;28;20065;-86
2021/08/25 08:18:38;;;;;;;;;;;35.40;26.30;;;;;;5012663;28;20042;-85
2021/08/25 08:21:04;;;;;;;15.57;7.25;;;34.30;27.10;;;;;;5012544;28;19906;-86
2021/08/25 08:23:32;;;;;;;13.02;7.25;;;34.20;27.00;;;;;;5010729;28;20014;-87
2021/08/25 08:25:58;;;;;;;13.48;7.45;;;34.80;26.50;;;;;;5012338;28;20430;-85
2021/08/25 08:28:24;;;;;;;10.40;7.03;;;35.20;26.40;;;;;;5011214;28;20022;-86
2021/08/25 08:30:50;;;;;;;13.38;7.30;;;35.70;26.30;;;;;;5011147;28;20022;-85
2021/08/25 08:33:16;;;;;;;8.77;7.00;;;36.10;26.00;;;;;;5013293;28;20559;-86
2021/08/25 08:35:42;;;;;;;13.65;6.63;;;36.30;25.90;;;;;;5011353;28;20046;-88
2021/08/25 08:38:08;;;;;;;13.38;7.00;;;36.30;26.00;;;;;;5010905;28;20034;-85
2021/08/25 08:40:35;;;;;;;16.88;8.55;;;36.00;26.00;;;;;;5012807;28;20529;-85
2021/08/25 08:43:09;;;;;;;14.85;7.85;;;35.10;26.10;;;;;;5013104;28;20041;-85
2021/08/25 08:45:43;;;;;;;12.93;7.22;;;34.30;26.60;;;;;;5012225;28;20029;-85
2021/08/25 08:48:12;;;;;;;10.15;7.88;;;34.00;27.10;;;;;;5010918;28;20037;-84
2021/08/25 08:50:46;;;;;;;12.70;6.97;;;35.10;26.70;;;;;;5012017;28;20029;-85
2021/08/25 08:53:13;;;;;;;11.20;7.13;;;35.80;26.40;;;;;;4998992;28;20029;-86
2021/08/25 08:55:40;;;;;;;19.95;8.45;;;36.10;26.00;;;;;;5012799;28;20018;-85
2021/08/25 08:58:06;;;;;;;12.05;7.22;;;36.60;25.90;;;;;;5012644;28;20041;-86
2021/08/25 09:00:33;;;;;;;9.80;7.40;;;36.20;26.30;;;;;;5012710;28;20018;-84
2021/08/25 09:02:59;;;;;;;10.57;8.18;;;35.90;25.80;;;;;;5012330;28;20026;-84
2021/08/25 09:05:34;;;;;;;11.77;7.53;;;35.70;25.80;;;;;;5013722;28;20110;-84
2021/08/25 09:08:04;;;;;;;16.83;7.97;;;34.00;26.50;;;;;;5013543;28;20057;-87
2021/08/25 09:10:35;;;;;;;13.55;7.38;;;32.70;27.50;;;;;;5012359;28;20501;-88
2021/08/25 09:13:06;;;;;;;11.60;7.22;;;32.80;27.60;;;;;;5013511;28;20018;-87
2021/08/25 09:15:35;;;;;;;12.75;7.78;;;33.20;27.90;;;;;;5011970;28;20026;-85
2021/08/25 09:18:07;;;;;;;13.32;7.57;;;32.80;27.50;;;;;;5012396;28;20030;-84
2021/08/25 09:20:35;;;;;;;13.77;7.88;;;31.50;28.40;;;;;;5015716;28;20383;-86
2021/08/25 09:23:17;;;;;;;23.60;9.00;;;31.50;28.80;;;;;;5010536;28;20027;-83
2021/08/25 09:25:44;;;;;;;14.20;8.32;;;32.70;28.50;;;;;;5018345;28;20045;-86
2021/08/25 09:28:13;;;;;;;12.27;7.68;;;33.40;27.80;;;;;;5016146;28;20028;-85
2021/08/25 09:31:12;;;;;;;11.00;6.88;;;34.20;27.50;;;;;;5014925;28;20099;-85
2021/08/25 09:33:42;;;;;;;9.52;7.43;;;34.80;27.20;;;;;;4983170;28;20040;-84
2021/08/25 09:36:17;;;;;;;11.13;8.13;;;35.60;26.70;;;;;;5016112;28;20049;-85
2021/08/25 09:38:57;;;;;;;14.52;8.82;;;35.90;26.50;;;;;;5015803;28;20038;-85
2021/08/25 09:41:24;;;;;;;16.95;8.55;;;35.10;26.80;;;;;;5003515;28;20038;-85
2021/08/25 09:43:51;;;;;;;17.30;8.55;;;35.00;27.10;;;;;;5015799;28;20072;-87
2021/08/25 09:46:22;;;;;;;13.48;8.30;;;35.30;26.90;;;;;;5015447;28;20032;-86
2021/08/25 09:48:51;;;;;;;12.98;8.05;;;35.20;27.00;;;;;;5015766;28;20029;-86
2021/08/25 09:51:22;;;;;;;11.90;7.57;;;34.70;27.10;;;;;;5015217;28;20022;-86
2021/08/25 09:54:02;;;;;;;12.93;8.07;;;33.30;27.50;;;;;;5015352;28;20032;-84
2021/08/25 09:56:34;;;;;;;9.45;7.70;;;32.30;28.10;;;;;;5015353;28;20468;-86
2021/08/25 09:59:06;;;;;;;13.48;7.70;;;31.80;28.60;;;;;;5015622;28;20034;-87
2021/08/25 10:01:33;;;;;;;13.55;7.55;;;31.60;28.90;;;;;;5014299;28;20426;-85
2021/08/25 10:03:59;;;;;;;15.20;8.90;;;31.40;29.50;;;;;;5015311;28;20068;-86
2021/08/25 10:06:26;;;;;;;11.97;7.57;;;31.00;29.40;;;;;;5015461;28;20021;-85
2021/08/25 10:08:53;;;;;;;14.02;7.93;;;31.10;29.70;;;;;;5015637;28;20017;-85
2021/08/25 10:11:29;;;;;;;14.45;8.07;;;31.10;29.40;;;;;;5015348;28;20018;-84
2021/08/25 10:13:56;;;;;;;11.63;7.40;;;31.20;29.50;;;;;;5015733;28;20034;-86
2021/08/25 10:16:39;;;;;;;17.65;8.10;;;31.70;29.80;;;;;;5015189;28;20097;-85
2021/08/25 10:19:24;;;;;;;11.73;7.90;;;32.60;29.00;;;;;;5012941;28;20030;-85
2021/08/25 10:21:51;;;;;;;15.48;8.40;;;33.60;28.50;;;;;;5014986;28;20021;-85
2021/08/25 10:24:18;;;;;;;10.98;7.97;;;33.60;28.30;;;;;;5013906;28;20033;-84
2021/08/25 10:26:59;;;;;;;;;;;32.60;28.20;;;;;;5016213;28;20387;-86
2021/08/25 10:29:37;;;;;;;9.40;6.63;;;31.60;28.60;;;;;;5010008;28;19936;-85
2021/08/25 10:32:03;;;;;;;12.07;8.68;;;30.20;29.90;;;;;;5016437;28;20021;-85
2021/08/25 10:34:38;;;;;;;14.07;7.68;;;28.30;31.50;;;;;;5014873;28;20026;-85
2021/08/25 10:37:14;;;;;;;18.00;8.98;;;27.00;33.10;;;;;;5020746;28;20021;-83
2021/08/25 10:39:41;;;;;;;13.82;8.70;;;26.40;34.70;;;;;;5008321;28;20045;-85
2021/08/25 10:42:08;;;;;;;15.88;8.20;;;26.00;35.20;;;;;;5014104;28;20034;-86
2021/08/25 10:44:39;;;;;;;;;;;25.80;35.60;;;;;;5013570;28;20025;-85
2021/08/25 10:47:29;;;;;;;15.88;8.75;;;25.40;34.70;;;;;;5014081;28;19912;-84
2021/08/25 10:50:09;;;;;;;13.57;7.70;;;25.00;36.80;;;;;;5014076;28;20113;-84
2021/08/25 10:52:35;;;;;;;11.93;7.30;;;24.80;37.20;;;;;;5012008;28;20549;-85
2021/08/25 10:55:01;;;;;;;14.32;9.02;;;24.70;38.10;;;;;;5014076;28;20108;-85
2021/08/25 10:57:28;;;;;;;17.25;8.45;;;24.20;38.70;;;;;;5014311;28;20033;-85
2021/08/25 11:00:11;;;;;;;12.60;7.70;;;24.00;39.20;;;;;;5013425;28;20030;-85
2021/08/25 11:02:38;;;;;;;16.85;10.40;;;23.90;39.10;;;;;;4996086;28;20030;-84
2021/08/25 11:05:05;;;;;;;15.40;8.93;;;23.70;39.90;;;;;;5012064;28;20053;-84
2021/08/25 11:07:41;;;;;;;12.75;7.50;;;23.50;39.90;;;;;;5013536;28;20030;-83
2021/08/25 11:10:07;;;;;;;18.52;8.55;;;23.40;40.30;;;;;;5013798;28;20105;-85
2021/08/25 11:12:33;;;;;;;14.02;8.52;;;23.20;40.60;;;;;;5013687;28;20033;-84
2021/08/25 11:14:59;;;;;;;12.90;8.23;;;23.00;41.40;;;;;;5013763;28;20375;-84
2021/08/25 11:17:30;;;;;;;12.52;7.03;;;22.90;41.90;;;;;;5000476;28;20467;-83
2021/08/25 11:20:05;;;;;;;11.07;7.65;;;22.80;41.50;;;;;;5007848;28;20150;-84
2021/08/25 11:22:33;;;;;;;11.48;7.32;;;22.60;42.50;;;;;;5000043;28;20025;-84
2021/08/25 11:25:10;;;;;;;11.88;7.32;;;22.60;43.20;;;;;;5014620;28;20022;-84
2021/08/25 11:27:36;;;;;;;17.13;9.43;;;22.60;42.50;;;;;;5013916;28;20081;-84
2021/08/25 11:30:10;;;;;;;12.73;7.53;;;22.70;42.80;;;;;;5013501;28;20022;-84
2021/08/25 11:32:43;;;;;;;13.55;7.55;;;22.20;42.50;;;;;;5013902;28;20096;-84
2021/08/25 11:35:11;;;;;;;15.00;6.97;;;22.20;43.60;;;;;;5012732;28;20479;-85
2021/08/25 11:37:37;;;;;;;13.57;7.18;;;22.10;44.20;;;;;;5013471;28;20026;-84
2021/08/25 11:40:05;;;;;;;10.75;7.63;;;22.30;44.10;;;;;;5013078;28;20041;-83
2021/08/25 11:42:33;;;;;;;15.75;8.30;;;22.40;44.00;;;;;;5011163;28;22082;-84
2021/08/25 11:44:59;;;;;;;13.27;7.25;;;22.40;44.00;;;;;;5013563;28;20352;-84
2021/08/25 11:47:26;;;;;;;13.93;8.10;;;22.30;44.20;;;;;;5013208;28;20029;-84
2021/08/25 11:49:55;;;;;;;11.45;7.95;;;22.20;44.00;;;;;;5011549;28;20079;-83
2021/08/25 11:52:32;;;;;;;13.63;7.85;;;22.00;44.80;;;;;;5013367;28;20076;-85
2021/08/25 11:55:00;;;;;;;13.50;7.82;;;21.70;45.30;;;;;;5011679;28;20452;-85
2021/08/25 11:57:45;;;;;;;12.77;7.80;;;21.50;46.10;;;;;;5013367;28;20029;-85
2021/08/25 12:00:13;;;;;;;13.50;7.38;;;21.40;46.20;;;;;;5001371;28;20038;-85
2021/08/25 12:02:51;;;;;;;15.00;9.00;;;21.50;46.50;;;;;;5013537;28;20033;-85
2021/08/25 12:05:28;;;;;;;10.23;6.78;;;21.60;46.50;;;;;;5016898;28;20160;-82
2021/08/25 12:08:07;;;;;;;14.73;8.10;;;21.70;46.10;;;;;;5015127;28;20022;-86
2021/08/25 12:10:39;;;;;;;15.05;8.10;;;21.50;46.10;;;;;;5015337;28;20034;-86
2021/08/25 12:13:06;;;;;;;16.85;7.00;;;21.40;47.20;;;;;;5013764;28;20384;-85
2021/08/25 12:15:43;;;;;;;16.48;7.80;;;21.30;46.80;;;;;;5012711;28;20065;-85
2021/08/25 12:18:09;;;;;;;14.07;7.43;;;21.40;47.30;;;;;;5009187;28;20049;-86
2021/08/25 12:20:35;;;;;;;15.07;7.40;;;21.40;47.10;;;;;;5011202;28;20346;-86
2021/08/25 12:23:06;;;;;;;13.47;6.83;;;21.20;47.50;;;;;;5012786;28;20022;-85
2021/08/25 12:25:47;;;;;;;13.82;8.02;;;21.10;47.60;;;;;;5011233;28;20368;-84
2021/08/25 12:28:16;;;;;;;16.20;9.75;;;21.10;47.80;;;;;;5012719;28;20026;-82
2021/08/25 12:30:42;;;;;;;15.15;7.97;;;21.20;48.20;;;;;;5012522;28;20093;-84
2021/08/25 12:33:15;;;;;;;13.90;7.68;;;21.50;48.30;;;;;;5012798;28;20033;-86
2021/08/25 12:35:40;;;;;;;16.05;7.30;;;21.70;48.40;;;;;;5010945;28;20037;-84
2021/08/25 12:38:07;;;;;;;10.25;7.18;;;21.80;47.40;;;;;;5012289;28;20031;-85
2021/08/25 12:40:33;;;;;;;14.95;7.05;;;21.90;47.40;;;;;;5012385;28;20044;-84
2021/08/25 12:43:00;;;;;;;11.30;7.07;;;21.70;47.20;;;;;;5012755;28;20104;-85
2021/08/25 12:45:27;;;;;;;14.60;7.05;;;21.40;48.00;;;;;;5012661;28;20506;-85